Time;durP1;ratioP1;P1;durP2;ratioP2;P2;SDS_P1;SDS_P2;PMS_P1;PMS_P2;Temp;Humidity;BMP_temperature;BMP_pressure;BME280_temperature;BME280_humidity;BME280_pressure;Samples;Min_cycle;Max_cycle;Signal;HPM_P1;HPM_P2
2021/09/03 00:01:54;;;;;;;9.60;8.60;;;;;;;13.53;78.79;101667.00;5028116;28;20687;-71
2021/09/03 00:04:22;;;;;;;11.93;8.70;;;;;;;13.52;79.04;101663.44;5028618;28;20207;-71
2021/09/03 00:06:49;;;;;;;10.77;8.47;;;;;;;13.50;79.30;101654.66;5026960;28;20234;-71
2021/09/03 00:09:15;;;;;;;9.50;8.50;;;;;;;13.47;78.82;101653.97;5029650;28;20241;-71
2021/09/03 00:11:41;;;;;;;9.67;8.50;;;;;;;13.41;78.20;101652.53;5021422;28;20206;-71
2021/09/03 00:14:08;;;;;;;10.63;9.53;;;;;;;13.32;77.84;101649.53;5040294;28;20208;-71
2021/09/03 00:16:37;;;;;;;13.83;10.93;;;;;;;13.22;77.74;101651.03;5022157;28;20226;-71
2021/09/03 00:19:04;;;;;;;12.27;10.77;;;;;;;13.10;77.09;101648.06;5026472;28;20194;-71
2021/09/03 00:21:32;;;;;;;10.73;9.70;;;;;;;13.03;77.21;101648.53;5028178;28;22132;-71
2021/09/03 00:23:58;;;;;;;12.70;10.40;;;;;;;12.97;77.55;101635.50;5028297;28;20206;-71
2021/09/03 00:26:25;;;;;;;11.33;9.50;;;;;;;12.94;78.06;101633.00;5031488;28;20223;-71
2021/09/03 00:28:52;;;;;;;10.83;9.50;;;;;;;12.93;78.18;101628.59;5031799;28;20233;-70
2021/09/03 00:31:18;;;;;;;13.37;9.43;;;;;;;12.92;78.27;101630.41;5032852;28;20219;-71
2021/09/03 00:33:45;;;;;;;10.30;9.13;;;;;;;12.91;78.45;101631.34;5030834;28;20210;-70
2021/09/03 00:36:11;;;;;;;13.83;10.70;;;;;;;12.91;78.92;101634.03;5032486;28;20238;-72
2021/09/03 00:38:39;;;;;;;14.27;10.57;;;;;;;12.92;79.30;101640.22;5030395;28;20221;-72
2021/09/03 00:41:06;;;;;;;12.93;10.43;;;;;;;12.93;79.19;101628.59;5028014;28;20220;-70
2021/09/03 00:43:32;;;;;;;13.00;10.23;;;;;;;12.94;79.63;101633.84;5031281;28;20580;-71
2021/09/03 00:45:59;;;;;;;14.40;10.50;;;;;;;12.94;79.46;101636.53;5029464;28;20226;-70
2021/09/03 00:48:26;;;;;;;11.27;10.07;;;;;;;12.96;79.84;101629.28;5031565;28;20205;-70
2021/09/03 00:50:54;;;;;;;12.63;10.97;;;;;;;12.95;79.86;101632.03;5029340;28;20237;-70
2021/09/03 00:53:20;;;;;;;13.53;10.50;;;;;;;12.92;79.94;101625.06;5029069;28;20210;-70
2021/09/03 00:55:49;;;;;;;13.00;10.07;;;;;;;12.88;80.15;101623.53;5028630;28;20210;-70
2021/09/03 00:58:20;;;;;;;12.30;9.63;;;;;;;12.84;79.79;101622.84;5028567;28;20210;-69
2021/09/03 01:00:47;;;;;;;12.80;9.33;;;;;;;12.78;80.11;101625.00;5022118;28;20202;-71
2021/09/03 01:03:13;;;;;;;10.93;9.73;;;;;;;12.74;80.24;101628.78;5029889;28;20202;-70
2021/09/03 01:05:40;;;;;;;12.00;9.77;;;;;;;12.69;80.25;101626.41;5032950;28;20205;-71
2021/09/03 01:08:07;;;;;;;11.17;9.43;;;;;;;12.68;80.72;101626.47;5031064;28;20207;-71
2021/09/03 01:10:34;;;;;;;10.77;9.70;;;;;;;12.68;80.52;101624.66;5033655;28;20235;-71
2021/09/03 01:13:02;;;;;;;14.63;10.30;;;;;;;12.67;80.77;101614.94;5030646;28;20202;-71
2021/09/03 01:15:29;;;;;;;12.30;10.03;;;;;;;12.66;80.85;101620.34;5030548;28;20205;-70
2021/09/03 01:17:56;;;;;;;13.57;11.30;;;;;;;12.67;81.10;101614.94;5031491;28;20726;-71
2021/09/03 01:20:23;;;;;;;12.73;10.43;;;;;;;12.65;81.26;101606.13;5029771;28;20208;-71
2021/09/03 01:22:51;;;;;;;11.83;8.63;;;;;;;12.63;81.15;101600.00;5029403;28;20572;-70
2021/09/03 01:25:17;;;;;;;10.47;8.83;;;;;;;12.58;80.62;101609.22;5031737;28;20202;-70
2021/09/03 01:27:44;;;;;;;10.40;8.50;;;;;;;12.51;80.80;101604.25;5026128;28;20222;-70
2021/09/03 01:30:13;;;;;;;11.60;9.27;;;;;;;12.47;80.63;101610.69;5023899;28;20227;-71
2021/09/03 01:32:40;;;;;;;11.63;8.77;;;;;;;12.43;80.80;101593.09;5030607;28;20517;-71
2021/09/03 01:35:07;;;;;;;9.43;8.20;;;;;;;12.41;81.07;101599.47;5030799;28;20653;-71
2021/09/03 01:37:34;;;;;;;9.60;8.47;;;;;;;12.38;80.87;101594.31;5033711;28;20227;-71
2021/09/03 01:40:02;;;;;;;10.50;9.40;;;;;;;12.34;80.96;101593.63;5037055;28;20206;-70
2021/09/03 01:42:29;;;;;;;9.77;8.40;;;;;;;12.31;80.94;101587.59;5034770;28;20207;-70
2021/09/03 01:44:55;;;;;;;11.23;9.00;;;;;;;12.28;81.24;101583.28;5037258;28;20216;-71
2021/09/03 01:47:22;;;;;;;8.93;8.00;;;;;;;12.25;81.18;101595.94;5029778;28;20230;-70
2021/09/03 01:49:48;;;;;;;7.83;7.03;;;;;;;12.18;80.94;101585.59;5029048;28;20240;-71
2021/09/03 01:52:15;;;;;;;8.10;7.10;;;;;;;12.15;81.14;101582.25;5030141;28;20206;-70
2021/09/03 01:54:41;;;;;;;10.93;7.87;;;;;;;12.12;81.28;101582.41;5029896;28;20677;-71
2021/09/03 01:57:09;;;;;;;7.87;7.07;;;;;;;12.08;81.16;101579.03;5030556;28;20601;-71
2021/09/03 01:59:36;;;;;;;7.10;6.17;;;;;;;12.07;81.54;101584.47;5030162;28;20220;-71
2021/09/03 02:02:02;;;;;;;7.77;6.73;;;;;;;12.06;81.52;101582.72;5029769;28;20205;-70
2021/09/03 02:04:29;;;;;;;7.97;6.93;;;;;;;12.05;81.61;101583.69;5028837;28;20203;-70
2021/09/03 02:06:55;;;;;;;8.33;7.43;;;;;;;12.05;81.65;101576.53;5030324;28;20236;-70
2021/09/03 02:09:22;;;;;;;10.70;9.40;;;;;;;12.05;82.03;101576.53;5030706;28;20587;-70
2021/09/03 02:11:49;;;;;;;7.43;6.73;;;;;;;12.05;81.88;101578.34;5029741;28;20209;-71
2021/09/03 02:14:17;;;;;;;6.60;5.97;;;;;;;12.02;81.73;101575.84;5024252;28;20276;-70
2021/09/03 02:16:43;;;;;;;5.33;4.90;;;;;;;11.98;81.55;101575.16;5030026;28;20232;-71
2021/09/03 02:19:10;;;;;;;5.40;5.00;;;;;;;11.94;81.81;101567.41;5029218;28;20228;-71
2021/09/03 02:21:37;;;;;;;5.10;4.70;;;;;;;11.92;82.01;101572.81;5030129;28;20225;-70
2021/09/03 02:24:04;;;;;;;5.90;5.30;;;;;;;11.90;81.81;101572.03;5025006;28;20248;-70
2021/09/03 02:26:31;;;;;;;6.17;5.67;;;;;;;11.89;81.86;101572.97;5028515;28;20611;-70
2021/09/03 02:28:57;;;;;;;6.90;6.20;;;;;;;11.87;82.08;101571.31;5030112;28;20206;-70
2021/09/03 02:31:26;;;;;;;5.80;5.27;;;;;;;11.86;82.09;101575.81;5030292;28;20705;-70
2021/09/03 02:33:52;;;;;;;5.50;4.97;;;;;;;11.83;82.05;101575.97;5029245;28;20214;-71
2021/09/03 02:36:19;;;;;;;6.70;6.13;;;;;;;11.80;81.84;101576.16;5024757;28;20228;-71
2021/09/03 02:38:46;;;;;;;6.13;5.63;;;;;;;11.74;81.55;101577.31;5030031;28;20206;-70
2021/09/03 02:41:13;;;;;;;6.70;6.10;;;;;;;11.69;81.43;101568.66;5026092;28;20210;-70
2021/09/03 02:43:39;;;;;;;6.90;6.23;;;;;;;11.66;81.65;101571.50;5029304;28;20198;-70
2021/09/03 02:46:06;;;;;;;6.63;6.03;;;;;;;11.64;81.86;101570.75;5029479;28;20721;-71
2021/09/03 02:48:33;;;;;;;5.67;5.17;;;;;;;11.63;81.94;101570.81;5028051;28;20214;-71
2021/09/03 02:51:00;;;;;;;5.87;5.37;;;;;;;11.61;82.05;101565.56;5027932;28;20606;-70
2021/09/03 02:53:27;;;;;;;5.27;4.87;;;;;;;11.60;81.98;101563.84;5027781;28;20203;-70
2021/09/03 02:55:53;;;;;;;5.97;5.37;;;;;;;11.61;82.31;101564.69;5023947;28;20221;-70
2021/09/03 02:58:19;;;;;;;6.30;5.70;;;;;;;11.61;82.41;101570.03;5029269;28;20221;-70
2021/09/03 03:00:46;;;;;;;6.37;5.77;;;;;;;11.59;82.43;101562.13;5028924;28;20203;-70
2021/09/03 03:03:13;;;;;;;6.70;6.10;;;;;;;11.59;82.35;101558.59;5029770;28;20202;-71
2021/09/03 03:05:40;;;;;;;7.23;6.53;;;;;;;11.57;82.31;101563.13;5022748;28;20227;-71
2021/09/03 03:08:07;;;;;;;7.53;6.83;;;;;;;11.54;82.22;101558.81;5021915;28;20669;-70
2021/09/03 03:10:34;;;;;;;7.20;6.50;;;;;;;11.53;82.47;101558.91;5024761;28;20239;-70
2021/09/03 03:13:09;;;;;;;8.00;7.20;;;;;;;11.47;82.14;101549.41;5026515;28;20261;-70
2021/09/03 03:15:36;;;;;;;7.93;7.23;;;;;;;11.44;82.11;101546.94;5026170;28;20198;-70
2021/09/03 03:18:02;;;;;;;6.83;6.23;;;;;;;11.40;81.92;101545.34;5027794;28;20237;-70
2021/09/03 03:20:29;;;;;;;7.53;6.83;;;;;;;11.38;81.97;101547.22;5027840;28;20203;-72
2021/09/03 03:22:57;;;;;;;7.87;6.97;;;;;;;11.35;82.04;101537.59;5025460;28;20206;-71
2021/09/03 03:25:23;;;;;;;8.30;7.40;;;;;;;11.34;81.96;101541.19;5020649;28;20207;-71
2021/09/03 03:27:50;;;;;;;9.03;7.17;;;;;;;11.32;82.13;101543.06;5028878;28;20225;-71
2021/09/03 03:30:16;;;;;;;8.83;7.97;;;;;;;11.33;82.20;101530.59;5029006;28;20226;-70
2021/09/03 03:32:43;;;;;;;11.13;9.93;;;;;;;11.32;82.19;101536.88;5028191;28;20554;-71
2021/09/03 03:35:10;;;;;;;9.00;8.10;;;;;;;11.28;82.17;101530.00;5028139;28;20204;-73
2021/09/03 03:37:36;;;;;;;8.73;7.93;;;;;;;11.25;82.25;101532.81;5029018;28;20233;-72
2021/09/03 03:40:06;;;;;;;9.13;8.13;;;;;;;11.23;82.37;101530.22;5029342;28;20196;-72
2021/09/03 03:42:32;;;;;;;9.93;8.93;;;;;;;11.22;82.60;101522.31;5025502;28;20707;-72
2021/09/03 03:44:59;;;;;;;9.57;8.60;;;;;;;11.22;82.85;101517.84;5029499;28;20206;-72
2021/09/03 03:47:25;;;;;;;9.30;8.40;;;;;;;11.23;82.96;101518.72;5028994;28;20587;-71
2021/09/03 03:49:52;;;;;;;8.87;8.07;;;;;;;11.24;83.23;101518.63;5028631;28;20238;-72
2021/09/03 03:52:18;;;;;;;9.43;8.53;;;;;;;11.22;82.80;101519.66;5028484;28;20557;-72
2021/09/03 03:54:45;;;;;;;9.53;8.63;;;;;;;11.16;82.83;101515.50;5028934;28;20202;-72
2021/09/03 03:57:12;;;;;;;8.97;8.13;;;;;;;11.12;83.11;101514.78;5029201;28;20234;-72
2021/09/03 03:59:39;;;;;;;9.07;8.03;;;;;;;11.09;83.01;101519.44;5026571;28;20216;-71
2021/09/03 04:02:05;;;;;;;8.97;8.17;;;;;;;11.09;83.14;101509.63;5031967;28;20206;-72
2021/09/03 04:04:32;;;;;;;8.83;7.93;;;;;;;11.04;82.71;101506.34;5027701;28;20215;-72
2021/09/03 04:06:59;;;;;;;8.67;7.87;;;;;;;11.03;82.88;101509.06;5031614;28;20230;-72
2021/09/03 04:09:25;;;;;;;8.60;7.80;;;;;;;11.01;83.23;101505.63;5029072;28;20254;-71
2021/09/03 04:11:52;;;;;;;9.47;8.53;;;;;;;11.00;83.07;101506.56;5027858;28;20230;-71
2021/09/03 04:14:20;;;;;;;9.97;9.00;;;;;;;10.97;82.90;101510.25;5031963;28;20225;-71
2021/09/03 04:16:47;;;;;;;12.23;10.03;;;;;;;10.94;82.97;101505.06;5029903;28;20226;-72
2021/09/03 04:19:14;;;;;;;11.57;9.67;;;;;;;10.92;83.13;101504.31;5028961;28;20601;-71
2021/09/03 04:21:41;;;;;;;12.23;10.83;;;;;;;10.90;83.38;101508.84;5023614;28;20204;-71
2021/09/03 04:24:07;;;;;;;15.47;10.27;;;;;;;10.89;83.61;101509.78;5032608;28;20750;-72
2021/09/03 04:26:34;;;;;;;14.03;10.60;;;;;;;10.89;83.64;101507.13;5027168;28;20226;-72
2021/09/03 04:29:01;;;;;;;20.17;12.33;;;;;;;10.91;83.89;101499.06;5030528;28;20232;-71
2021/09/03 04:31:29;;;;;;;17.47;12.00;;;;;;;10.91;84.22;101505.25;5027146;28;20222;-71
2021/09/03 04:33:55;;;;;;;19.60;14.53;;;;;;;10.93;84.38;101503.34;5027405;28;20202;-72
2021/09/03 04:36:22;;;;;;;17.47;13.10;;;;;;;10.94;84.74;101493.53;5029422;28;20223;-70
2021/09/03 04:38:48;;;;;;;13.37;11.90;;;;;;;10.94;84.64;101499.72;5035886;28;20600;-71
2021/09/03 04:41:15;;;;;;;13.00;10.93;;;;;;;10.94;84.60;101499.72;5040405;28;20303;-71
2021/09/03 04:43:41;;;;;;;10.60;9.50;;;;;;;10.94;84.85;101493.53;5030595;28;20210;-70
2021/09/03 04:46:08;;;;;;;10.70;9.60;;;;;;;10.91;84.35;101504.38;5025995;28;20227;-70
2021/09/03 04:48:36;;;;;;;11.40;9.73;;;;;;;10.86;84.26;101501.94;5024136;28;20207;-70
2021/09/03 04:51:03;;;;;;;13.13;10.90;;;;;;;10.83;84.17;101506.56;5022396;28;20224;-71
2021/09/03 04:53:29;;;;;;;12.23;10.57;;;;;;;10.77;84.14;101502.41;5019982;28;20199;-70
2021/09/03 04:55:56;;;;;;;13.17;10.77;;;;;;;10.72;84.48;101507.97;5021564;28;20230;-71
2021/09/03 04:58:23;;;;;;;16.57;12.33;;;;;;;10.72;84.56;101505.31;5018116;28;20480;-70
2021/09/03 05:00:49;;;;;;;14.70;11.93;;;;;;;10.72;84.73;101501.78;5024767;28;20257;-71
2021/09/03 05:03:16;;;;;;;13.10;11.27;;;;;;;10.73;84.91;101500.84;5020705;28;20576;-70
2021/09/03 05:05:44;;;;;;;17.37;11.90;;;;;;;10.74;85.18;101498.13;5018880;28;20207;-71
2021/09/03 05:08:10;;;;;;;15.13;12.07;;;;;;;10.75;85.31;101498.94;5036280;23;20227;-73
2021/09/03 05:10:37;;;;;;;15.27;12.90;;;;;;;10.78;85.25;101501.47;5021276;28;20230;-73
2021/09/03 05:13:03;;;;;;;17.40;12.70;;;;;;;10.79;85.22;101496.06;5021080;28;20227;-73
2021/09/03 05:15:34;;;;;;;19.13;13.93;;;;;;;10.82;85.51;101496.84;5028351;28;20199;-73
2021/09/03 05:18:00;;;;;;;15.73;12.67;;;;;;;10.83;85.52;101496.75;5039292;28;20232;-73
2021/09/03 05:20:27;;;;;;;20.00;13.20;;;;;;;10.84;85.65;101497.63;5021787;28;20195;-72
2021/09/03 05:22:56;;;;;;;16.50;12.90;;;;;;;10.83;85.85;101502.09;5015819;28;20203;-73
2021/09/03 05:25:23;;;;;;;19.30;13.80;;;;;;;10.82;85.94;101492.38;5017873;28;20381;-73
2021/09/03 05:27:50;;;;;;;16.33;13.17;;;;;;;10.81;85.69;101493.31;5028754;28;20238;-73
2021/09/03 05:30:17;;;;;;;14.63;11.73;;;;;;;10.83;86.05;101501.22;5024384;28;20684;-73
2021/09/03 05:32:44;;;;;;;15.83;12.50;;;;;;;10.83;85.98;101495.91;5029751;28;20732;-74
2021/09/03 05:35:11;;;;;;;15.33;13.27;;;;;;;10.84;85.96;101501.16;5023560;28;20234;-75
2021/09/03 05:37:38;;;;;;;16.40;12.67;;;;;;;10.87;86.43;101493.00;5028373;28;20724;-74
2021/09/03 05:40:08;;;;;;;15.83;12.40;;;;;;;10.93;86.81;101505.13;5026844;28;20203;-75
2021/09/03 05:42:35;;;;;;;14.43;12.47;;;;;;;11.00;87.05;101498.56;5029990;28;20412;-75
2021/09/03 05:45:02;;;;;;;14.60;12.80;;;;;;;11.03;87.04;101499.28;5023122;28;20203;-75
2021/09/03 05:47:29;;;;;;;16.87;13.10;;;;;;;11.09;86.99;101500.78;5021463;28;20244;-75
2021/09/03 05:49:56;;;;;;;21.57;14.53;;;;;;;11.12;87.07;101498.78;5029467;28;20202;-74
2021/09/03 05:52:22;;;;;;;15.63;12.87;;;;;;;11.17;86.91;101500.34;5024471;28;20240;-75
2021/09/03 05:54:49;;;;;;;15.93;13.40;;;;;;;11.22;87.21;101501.84;5023172;28;20207;-75
2021/09/03 05:57:17;;;;;;;16.30;12.57;;;;;;;11.27;87.32;101497.13;5024569;28;20222;-74
2021/09/03 05:59:43;;;;;;;19.17;14.03;;;;;;;11.32;87.29;101500.41;5025347;28;20198;-74
2021/09/03 06:02:10;;;;;;;16.17;13.33;;;;;;;11.37;87.22;101494.84;5024809;28;20206;-74
2021/09/03 06:04:36;;;;;;;16.53;14.13;;;;;;;11.43;87.28;101494.53;5029815;28;20210;-74
2021/09/03 06:07:03;;;;;;;15.87;13.60;;;;;;;11.48;87.41;101489.78;5027445;28;20230;-74
2021/09/03 06:09:30;;;;;;;14.43;12.93;;;;;;;11.52;87.36;101482.47;5027687;28;20210;-74
2021/09/03 06:11:57;;;;;;;15.13;12.57;;;;;;;11.58;87.54;101491.03;5030108;28;20227;-75
2021/09/03 06:14:26;;;;;;;14.17;11.83;;;;;;;11.65;87.65;101481.72;5029612;28;20579;-75
2021/09/03 06:16:52;;;;;;;12.70;11.50;;;;;;;11.76;87.80;101481.19;5030492;28;20247;-75
2021/09/03 06:19:19;;;;;;;12.77;11.00;;;;;;;11.88;87.97;101484.97;5025094;28;20665;-75
2021/09/03 06:21:45;;;;;;;11.93;10.80;;;;;;;12.00;88.21;101482.47;5022884;28;20294;-74
2021/09/03 06:24:28;;;;;;;12.97;11.60;;;;;;;12.14;88.44;101474.56;5023957;28;20229;-74
2021/09/03 06:26:54;;;;;;;12.27;11.07;;;;;;;12.30;88.45;101476.38;5026178;28;20223;-74
2021/09/03 06:32:03;;;;;;;12.97;11.73;;;;;;;12.57;88.62;101481.91;5015151;28;20315;-74
2021/09/03 06:34:30;;;;;;;13.93;12.50;;;;;;;12.69;88.13;101481.19;5020295;28;20206;-74
2021/09/03 06:36:56;;;;;;;13.57;12.17;;;;;;;12.80;88.21;101473.41;5020222;28;20230;-74
2021/09/03 06:39:23;;;;;;;13.47;12.13;;;;;;;12.92;88.05;101480.69;5024124;28;20206;-74
2021/09/03 06:41:49;;;;;;;14.43;12.93;;;;;;;13.05;88.11;101483.50;5027954;28;20194;-75
2021/09/03 06:44:16;;;;;;;13.77;12.47;;;;;;;13.16;87.85;101473.88;5022580;28;20478;-75
2021/09/03 06:46:42;;;;;;;14.17;12.47;;;;;;;13.29;88.06;101474.00;5014058;28;20230;-75
2021/09/03 06:49:10;;;;;;;14.07;12.57;;;;;;;13.40;87.78;101468.84;5017783;28;20202;-75
2021/09/03 06:51:37;;;;;;;14.43;12.30;;;;;;;13.46;87.41;101471.13;5016596;28;20246;-75
2021/09/03 06:54:03;;;;;;;14.47;13.07;;;;;;;13.56;87.08;101466.06;5016529;28;20209;-75
2021/09/03 06:56:30;;;;;;;13.60;12.20;;;;;;;13.68;87.15;101465.28;5017925;28;20218;-75
2021/09/03 06:58:57;;;;;;;14.03;12.63;;;;;;;13.83;87.58;101468.81;5018911;28;20225;-75
2021/09/03 07:01:24;;;;;;;12.77;11.43;;;;;;;14.00;87.93;101462.38;5015371;28;20198;-75
2021/09/03 07:03:50;;;;;;;13.27;11.97;;;;;;;14.12;87.47;101465.13;5016413;28;20695;-75
2021/09/03 07:06:18;;;;;;;12.47;11.13;;;;;;;14.27;87.04;101475.78;5016329;28;20240;-75
2021/09/03 07:08:45;;;;;;;12.70;11.40;;;;;;;14.37;86.33;101476.91;5016875;28;20194;-75
2021/09/03 07:11:11;;;;;;;13.27;11.97;;;;;;;14.46;86.21;101477.19;5020661;28;20241;-75
2021/09/03 07:13:38;;;;;;;14.07;12.03;;;;;;;14.56;86.08;101474.75;5022044;28;20220;-75
2021/09/03 07:16:05;;;;;;;13.47;12.17;;;;;;;14.69;86.22;101481.00;5025357;28;20237;-75
2021/09/03 07:18:32;;;;;;;13.43;12.03;;;;;;;14.81;85.37;101477.50;5022106;28;20222;-75
2021/09/03 07:20:58;;;;;;;15.90;13.17;;;;;;;14.92;85.26;101479.44;5020351;28;20214;-75
2021/09/03 07:23:26;;;;;;;15.03;13.13;;;;;;;15.04;85.17;101475.09;5023484;28;20203;-75
2021/09/03 07:25:53;;;;;;;15.60;13.87;;;;;;;15.14;84.32;101468.97;5022494;28;20206;-75
2021/09/03 07:28:20;;;;;;;15.33;13.80;;;;;;;15.24;84.30;101470.03;5021707;28;20781;-75
2021/09/03 07:30:46;;;;;;;13.73;12.33;;;;;;;15.37;83.87;101474.56;5022186;28;20230;-75
2021/09/03 07:33:13;;;;;;;14.97;13.17;;;;;;;15.49;83.88;101479.91;5026695;28;20209;-75
2021/09/03 07:35:39;;;;;;;16.10;14.00;;;;;;;15.59;83.11;101474.75;5027868;28;20208;-75
2021/09/03 07:38:06;;;;;;;14.70;13.20;;;;;;;15.69;83.00;101477.66;5028463;28;20605;-75
2021/09/03 07:40:34;;;;;;;16.20;14.50;;;;;;;15.77;82.42;101472.59;5028273;28;20216;-76
2021/09/03 07:43:06;;;;;;;17.77;15.20;;;;;;;15.83;82.22;101472.16;5029918;28;20210;-75
2021/09/03 07:45:33;;;;;;;16.10;14.13;;;;;;;15.89;81.61;101466.34;5022939;28;20229;-76
2021/09/03 07:47:59;;;;;;;17.73;15.93;;;;;;;15.97;81.53;101472.88;5032298;28;20238;-76
2021/09/03 07:50:26;;;;;;;18.70;15.17;;;;;;;16.08;81.73;101468.56;5029056;28;20210;-76
2021/09/03 07:52:52;;;;;;;18.07;15.60;;;;;;;16.19;81.37;101463.25;5024835;28;20231;-76
2021/09/03 07:55:19;;;;;;;18.43;15.17;;;;;;;16.31;81.27;101459.63;5026827;28;20370;-76
2021/09/03 07:57:47;;;;;;;16.03;14.33;;;;;;;16.43;80.99;101464.13;5025139;28;20222;-76
2021/09/03 08:00:16;;;;;;;16.63;14.33;;;;;;;16.56;81.05;101469.41;5025625;28;20214;-76
2021/09/03 08:02:43;;;;;;;17.43;15.67;;;;;;;16.70;80.40;101457.63;5025909;28;20231;-76
2021/09/03 08:05:10;;;;;;;18.77;15.90;;;;;;;16.83;80.20;101459.31;5035128;28;20653;-76
2021/09/03 08:07:41;;;;;;;17.80;15.03;;;;;;;16.98;79.93;101454.56;5023734;28;20237;-75
2021/09/03 08:10:09;;;;;;;23.90;17.47;;;;;;;17.13;79.68;101449.81;5025637;28;20203;-75
2021/09/03 08:12:35;;;;;;;25.27;17.87;;;;;;;17.25;78.86;101446.16;5027682;28;20728;-75
2021/09/03 08:15:04;;;;;;;19.73;16.53;;;;;;;17.38;78.29;101448.75;5031112;28;20207;-75
2021/09/03 08:17:31;;;;;;;18.50;16.53;;;;;;;17.51;78.33;101446.78;5032891;28;20232;-75
2021/09/03 08:19:58;;;;;;;27.10;18.20;;;;;;;17.67;77.59;101444.63;5028069;28;20208;-75
2021/09/03 08:22:24;;;;;;;23.00;17.37;;;;;;;17.80;76.97;101444.47;5027345;28;20201;-75
2021/09/03 08:24:51;;;;;;;25.63;17.80;;;;;;;17.93;76.58;101445.19;5028920;28;20456;-75
2021/09/03 08:27:17;;;;;;;24.17;17.53;;;;;;;18.07;76.13;101453.03;5024987;28;20312;-76
2021/09/03 08:29:45;;;;;;;20.70;16.53;;;;;;;18.22;76.06;101445.50;5028493;28;20577;-76
2021/09/03 08:32:13;;;;;;;18.27;15.67;;;;;;;18.37;75.26;101434.28;5019329;28;20229;-76
2021/09/03 08:34:40;;;;;;;22.50;16.50;;;;;;;18.50;74.49;101446.75;5024315;28;20228;-75
2021/09/03 08:37:07;;;;;;;22.03;15.87;;;;;;;18.59;74.21;101443.31;5023151;28;20233;-76
2021/09/03 08:39:33;;;;;;;21.63;16.67;;;;;;;18.70;73.46;101440.56;5022096;28;20221;-75
2021/09/03 08:42:00;;;;;;;21.47;17.23;;;;;;;18.81;73.13;101435.09;5030031;28;20213;-76
2021/09/03 08:44:29;;;;;;;20.80;17.20;;;;;;;18.95;72.97;101437.47;5027148;28;20208;-75
2021/09/03 08:46:56;;;;;;;21.93;17.27;;;;;;;19.09;72.75;101430.88;5018588;28;20230;-76
2021/09/03 08:49:25;;;;;;;22.00;16.77;;;;;;;19.22;71.62;101436.91;5019321;28;20215;-75
2021/09/03 08:51:52;;;;;;;20.83;16.10;;;;;;;19.34;70.93;101440.41;5024947;28;20224;-75
2021/09/03 08:54:19;;;;;;;19.03;15.40;;;;;;;19.46;70.37;101446.56;5022738;28;20212;-75
2021/09/03 08:56:46;;;;;;;18.03;13.70;;;;;;;19.59;69.90;101439.13;5028894;28;20252;-75
2021/09/03 08:59:12;;;;;;;15.67;13.67;;;;;;;19.70;69.27;101434.50;5022426;28;20220;-75
2021/09/03 09:01:39;;;;;;;14.57;12.90;;;;;;;19.83;68.70;101430.69;5026752;28;20206;-76
2021/09/03 09:04:11;;;;;;;16.50;12.10;;;;;;;19.97;68.17;101433.84;5031427;28;20211;-76
2021/09/03 09:06:39;;;;;;;15.40;13.27;;;;;;;20.10;66.75;101436.28;5031285;28;20237;-75
2021/09/03 09:09:06;;;;;;;13.30;11.43;;;;;;;20.17;66.18;101432.03;5030734;28;20207;-75
2021/09/03 09:11:34;;;;;;;13.33;11.30;;;;;;;20.25;65.55;101437.56;5028060;28;20894;-76
2021/09/03 09:14:03;;;;;;;15.13;11.87;;;;;;;20.32;65.09;101435.19;5024967;28;20667;-75
2021/09/03 09:16:31;;;;;;;16.47;12.00;;;;;;;20.41;64.94;101439.78;5026593;28;20236;-75
2021/09/03 09:18:59;;;;;;;14.57;11.07;;;;;;;20.49;64.40;101439.91;5026259;28;20209;-76
2021/09/03 09:21:29;;;;;;;16.40;11.43;;;;;;;20.58;63.69;101433.66;5027829;28;20221;-76
2021/09/03 09:24:00;;;;;;;13.33;10.70;;;;;;;20.67;63.64;101427.38;5024408;28;20278;-75
2021/09/03 09:26:41;;;;;;;15.52;10.70;;;;;;;20.79;63.23;101433.47;5027745;28;20324;-76
2021/09/03 09:29:13;;;;;;;14.23;11.02;;;;;;;20.92;63.45;101435.91;5024588;28;20721;-76
2021/09/03 09:31:39;;;;;;;14.43;10.52;;;;;;;21.01;62.63;101443.16;5021650;28;20867;-76
2021/09/03 09:34:16;;;;;;;12.10;10.20;;;;;;;21.09;62.45;101427.03;5029418;28;20671;-76
2021/09/03 09:36:43;;;;;;;11.70;10.48;;;;;;;21.20;62.05;101439.56;5020303;28;20718;-76
2021/09/03 09:39:12;;;;;;;14.07;10.63;;;;;;;21.26;61.81;101434.44;5021828;28;20205;-76
2021/09/03 09:41:38;;;;;;;13.63;9.77;;;;;;;21.33;60.50;101430.13;5031059;28;20228;-75
2021/09/03 09:44:05;;;;;;;14.63;12.38;;;;;;;21.40;60.86;101420.41;5029763;28;20300;-75
2021/09/03 09:46:33;;;;;;;12.60;11.30;;;;;;;21.44;60.50;101421.81;5029592;28;20750;-75
2021/09/03 09:49:06;;;;;;;17.42;13.02;;;;;;;21.53;60.57;101414.63;5029556;28;20205;-76
2021/09/03 09:51:35;;;;;;;18.13;12.55;;;;;;;21.64;60.83;101410.91;5028637;28;20213;-76
2021/09/03 09:54:04;;;;;;;16.98;13.50;;;;;;;21.77;60.51;101406.81;5030511;28;20206;-76
2021/09/03 09:56:35;;;;;;;18.73;12.77;;;;;;;21.88;60.41;101400.31;5027998;28;20715;-76
2021/09/03 09:59:03;;;;;;;16.63;13.38;;;;;;;21.98;60.20;101403.84;5031079;28;20214;-76
2021/09/03 10:01:30;;;;;;;17.77;13.93;;;;;;;22.08;59.46;101404.66;5026843;28;20210;-76
2021/09/03 10:03:56;;;;;;;19.40;14.32;;;;;;;22.13;58.52;101399.63;5019959;28;20214;-75
2021/09/03 10:06:25;;;;;;;17.63;13.65;;;;;;;22.16;59.07;101399.31;5026683;28;20660;-76
2021/09/03 10:08:55;;;;;;;17.45;14.23;;;;;;;22.24;58.72;101394.97;5024948;28;20474;-76
2021/09/03 10:11:22;;;;;;;18.35;14.43;;;;;;;22.30;58.73;101395.22;5025786;28;20671;-76
2021/09/03 10:13:51;;;;;;;16.70;14.48;;;;;;;22.39;58.27;101401.59;5022521;28;20622;-76
2021/09/03 10:16:17;;;;;;;17.67;15.90;;;;;;;22.44;58.25;101394.66;5028105;28;20576;-76
2021/09/03 10:18:47;;;;;;;18.83;15.23;;;;;;;22.49;58.16;101397.78;5024281;28;20418;-75
2021/09/03 10:21:14;;;;;;;18.25;15.75;;;;;;;22.57;57.94;101393.44;5028931;28;20205;-76
2021/09/03 10:23:51;;;;;;;16.75;13.25;;;;;;;22.61;57.25;101392.94;5030142;28;20224;-75
2021/09/03 10:26:22;;;;;;;16.38;12.32;;;;;;;22.65;56.43;101388.06;5029338;28;20197;-75
2021/09/03 10:28:50;;;;;;;16.30;12.95;;;;;;;22.67;56.05;101384.19;5030686;28;20584;-75
2021/09/03 10:31:19;;;;;;;15.80;12.50;;;;;;;22.71;55.90;101385.56;5028022;28;20202;-76
2021/09/03 10:33:47;;;;;;;15.15;10.90;;;;;;;22.81;56.16;101385.50;5030274;28;20808;-75
2021/09/03 10:36:14;;;;;;;15.30;10.20;;;;;;;22.90;55.30;101381.00;5029134;28;20241;-76
2021/09/03 10:38:44;;;;;;;12.85;9.80;;;;;;;22.95;54.45;101365.88;5029645;28;20202;-76
2021/09/03 10:41:48;;;;;;;15.55;9.20;;;;;;;23.04;53.45;101361.38;5026792;28;20227;-76
2021/09/03 10:44:16;;;;;;;11.65;9.05;;;;;;;23.07;53.62;101364.63;5026009;28;20205;-75
2021/09/03 10:46:43;;;;;;;13.45;9.43;;;;;;;23.08;53.19;101357.34;5028453;28;20222;-76
2021/09/03 10:49:10;;;;;;;11.63;9.63;;;;;;;23.07;53.51;101355.63;5030158;28;20206;-75
2021/09/03 10:51:39;;;;;;;10.60;8.77;;;;;;;23.08;53.30;101350.03;5027094;28;20280;-76
2021/09/03 10:54:15;;;;;;;13.60;9.40;;;;;;;23.14;53.15;101349.38;5030307;28;20231;-75
2021/09/03 10:56:54;;;;;;;10.02;9.02;;;;;;;23.19;53.12;101351.59;5029398;28;20750;-75
2021/09/03 10:59:23;;;;;;;13.07;9.48;;;;;;;23.22;52.61;101348.56;5029856;28;20206;-76
2021/09/03 11:01:52;;;;;;;13.43;9.38;;;;;;;23.28;52.76;101347.06;5026692;28;20202;-75
2021/09/03 11:04:21;;;;;;;11.60;8.98;;;;;;;23.33;52.70;101350.13;5029723;28;20300;-75
2021/09/03 11:06:54;;;;;;;9.27;8.27;;;;;;;23.36;52.47;101336.22;5032830;22;20679;-79
2021/09/03 11:09:24;;;;;;;13.52;8.90;;;;;;;23.42;52.72;101336.44;5020091;28;20198;-79
2021/09/03 11:11:53;;;;;;;11.25;8.57;;;;;;;23.47;52.16;101336.78;5023462;28;20676;-79
2021/09/03 11:14:21;;;;;;;12.82;9.20;;;;;;;23.46;51.75;101340.53;5027435;28;20202;-79
2021/09/03 11:16:50;;;;;;;11.80;8.85;;;;;;;23.43;51.36;101334.56;5021764;28;20281;-79
2021/09/03 11:19:20;;;;;;;10.52;8.68;;;;;;;23.42;51.33;101336.44;5025004;28;20207;-79